Time;durP1;ratioP1;P1;durP2;ratioP2;P2;SDS_P1;SDS_P2;PMS_P1;PMS_P2;Temp;Humidity;BMP_temperature;BMP_pressure;BME280_temperature;BME280_humidity;BME280_pressure;Samples;Min_cycle;Max_cycle;Signal;HPM_P1;HPM_P2
2022/10/12 00:01:17;;;;;;;20.80;15.05;;;20.20;59.90;;;;;;5039307;28;20719;-83
2022/10/12 00:03:42;;;;;;;22.77;16.02;;;19.80;61.00;;;;;;5056853;28;20021;-84
2022/10/12 00:06:12;;;;;;;26.05;16.33;;;19.60;61.50;;;;;;5057592;28;20029;-83
2022/10/12 00:08:39;;;;;;;23.70;15.70;;;19.30;62.30;;;;;;5075352;28;20742;-84
2022/10/12 00:11:06;;;;;;;22.33;16.23;;;19.40;62.20;;;;;;5049433;28;20055;-83
2022/10/12 00:13:33;;;;;;;22.40;15.57;;;19.60;62.00;;;;;;5056715;28;20040;-84
2022/10/12 00:16:05;;;;;;;30.60;17.77;;;19.60;62.20;;;;;;5072099;28;20083;-85
2022/10/12 00:18:31;;;;;;;24.42;16.83;;;19.80;61.80;;;;;;5056587;28;20111;-84
2022/10/12 00:21:06;;;;;;;24.42;16.95;;;20.00;61.40;;;;;;5045350;28;20475;-84
2022/10/12 00:23:32;;;;;;;24.45;17.77;;;20.20;62.00;;;;;;5084335;28;20072;-84
2022/10/12 00:26:04;;;;;;;25.02;17.58;;;20.30;61.00;;;;;;5076267;28;20039;-83
2022/10/12 00:28:30;;;;;;;26.50;17.42;;;20.40;60.80;;;;;;5092352;28;20065;-84
2022/10/12 00:30:55;;;;;;;25.10;17.05;;;20.40;61.10;;;;;;5075119;28;20099;-83
2022/10/12 00:33:21;;;;;;;25.10;17.05;;;20.50;60.90;;;;;;5076248;28;20044;-83
2022/10/12 00:35:47;;;;;;;30.92;17.88;;;20.60;61.00;;;;;;5092049;28;20025;-82
2022/10/12 00:38:12;;;;;;;28.50;18.10;;;20.60;61.00;;;;;;5076013;28;20112;-83
2022/10/12 00:40:38;;;;;;;26.67;16.83;;;20.70;61.00;;;;;;5057392;28;20429;-83
2022/10/12 00:43:22;;;;;;;24.98;17.83;;;20.60;61.70;;;;;;5092146;28;20032;-83
2022/10/12 00:45:49;;;;;;;27.02;18.45;;;20.70;60.80;;;;;;5058143;28;20098;-84
2022/10/12 00:48:15;;;;;;;23.90;17.10;;;20.80;60.70;;;;;;5075147;28;20099;-83
2022/10/12 00:50:40;;;;;;;27.48;17.35;;;20.60;61.30;;;;;;5075180;28;20024;-83
2022/10/12 00:53:14;;;;;;;23.85;16.38;;;20.30;62.00;;;;;;5075651;28;20037;-83
2022/10/12 00:55:48;;;;;;;24.83;17.17;;;20.40;61.90;;;;;;5075842;28;20036;-83
2022/10/12 00:58:14;;;;;;;22.17;15.82;;;20.40;62.20;;;;;;5075863;28;20114;-83
2022/10/12 01:00:41;;;;;;;20.73;16.02;;;20.30;62.00;;;;;;5087430;28;20467;-83
2022/10/12 01:03:09;;;;;;;21.92;15.98;;;20.00;62.60;;;;;;5055988;28;20120;-82
2022/10/12 01:05:38;;;;;;;25.80;17.25;;;19.80;63.30;;;;;;5071320;28;20021;-83
2022/10/12 01:08:04;;;;;;;25.05;17.55;;;19.70;64.10;;;;;;5055782;28;20025;-83
2022/10/12 01:10:30;;;;;;;25.67;16.48;;;19.90;63.40;;;;;;5039808;28;20400;-84
2022/10/12 01:12:57;;;;;;;22.73;16.80;;;20.20;61.90;;;;;;5075416;28;20044;-84
2022/10/12 01:15:27;;;;;;;25.63;17.65;;;20.40;61.30;;;;;;5057422;28;20025;-82
2022/10/12 01:18:19;;;;;;;22.05;15.95;;;20.50;60.50;;;;;;5057718;28;20041;-84
2022/10/12 01:21:00;;;;;;;24.77;17.15;;;20.40;60.40;;;;;;5053666;28;20116;-83
2022/10/12 01:23:44;;;;;;;26.30;17.65;;;20.30;60.00;;;;;;5075805;28;20115;-83
2022/10/12 01:26:33;;;;;;;23.73;16.38;;;20.30;60.30;;;;;;5075630;28;20067;-84
2022/10/12 01:29:23;;;;;;;26.58;18.25;;;20.20;61.00;;;;;;5057611;28;20025;-83
2022/10/12 01:32:06;;;;;;;30.92;17.90;;;20.20;60.50;;;;;;5077581;28;20025;-83
2022/10/12 01:34:46;;;;;;;22.85;16.27;;;20.30;60.00;;;;;;5037253;28;20032;-82
2022/10/12 01:37:39;;;;;;;24.23;16.90;;;20.10;60.70;;;;;;5037218;28;20494;-83
2022/10/12 01:40:10;;;;;;;27.10;16.85;;;19.80;61.80;;;;;;5037189;28;20037;-82
2022/10/12 01:42:39;;;;;;;24.05;15.93;;;19.80;62.10;;;;;;5070811;28;20543;-82
2022/10/12 01:45:09;;;;;;;29.05;18.17;;;19.80;62.40;;;;;;5036993;28;20025;-82
2022/10/12 01:47:38;;;;;;;34.78;20.77;;;19.80;61.50;;;;;;5076915;28;20078;-84
2022/10/12 01:50:06;;;;;;;28.90;18.45;;;19.90;61.10;;;;;;5057840;28;20039;-84
2022/10/12 01:52:43;;;;;;;30.23;18.60;;;20.10;61.10;;;;;;5051228;28;20024;-83
2022/10/12 01:55:33;;;;;;;28.92;18.13;;;20.20;60.60;;;;;;5090666;28;20028;-82
2022/10/12 01:58:13;;;;;;;29.30;19.60;;;20.10;60.50;;;;;;5071422;28;20036;-85
2022/10/12 02:01:07;;;;;;;30.83;20.77;;;20.10;60.90;;;;;;5074730;28;20029;-84
2022/10/12 02:03:54;;;;;;;25.20;17.83;;;20.20;60.80;;;;;;5013120;28;20026;-84
2022/10/12 02:06:26;;;;;;;29.00;18.45;;;20.00;61.70;;;;;;4996384;28;20029;-84
2022/10/12 02:09:24;;;;;;;27.45;18.92;;;19.90;62.60;;;;;;5012374;28;20049;-83
2022/10/12 02:11:52;;;;;;;29.55;18.77;;;20.00;62.20;;;;;;5012642;28;20044;-83
2022/10/12 02:14:22;;;;;;;24.73;16.95;;;20.20;62.00;;;;;;4996551;28;20034;-83
2022/10/12 02:16:54;;;;;;;25.48;16.35;;;20.10;62.30;;;;;;4996178;28;20037;-83
2022/10/12 02:19:25;;;;;;;29.92;18.95;;;20.00;62.80;;;;;;4995623;28;20045;-83
2022/10/12 02:21:54;;;;;;;22.00;15.85;;;20.00;62.90;;;;;;5013105;28;20410;-83
2022/10/12 02:24:22;;;;;;;23.63;17.20;;;20.00;62.90;;;;;;4996342;28;20030;-82
2022/10/12 02:26:51;;;;;;;22.77;16.10;;;20.00;63.30;;;;;;5012612;28;20061;-84
2022/10/12 02:29:23;;;;;;;23.02;16.30;;;20.00;62.50;;;;;;5011959;28;20113;-83
2022/10/12 02:31:55;;;;;;;26.17;15.13;;;20.00;63.00;;;;;;5012216;28;20046;-83
2022/10/12 02:34:32;;;;;;;21.90;14.98;;;20.20;62.60;;;;;;5012557;28;20046;-84
2022/10/12 02:37:13;;;;;;;20.95;16.02;;;20.40;61.60;;;;;;5013107;28;20099;-83
2022/10/12 02:39:53;;;;;;;22.85;16.02;;;20.60;61.50;;;;;;5007048;28;20064;-83
2022/10/12 02:42:30;;;;;;;24.65;17.42;;;20.40;61.00;;;;;;5036180;28;20518;-83
2022/10/12 02:44:58;;;;;;;24.95;16.35;;;20.40;61.10;;;;;;5036038;28;20040;-83
2022/10/12 02:47:27;;;;;;;22.20;15.15;;;20.50;60.90;;;;;;5053551;28;20029;-82
2022/10/12 02:49:55;;;;;;;25.35;16.15;;;20.50;60.70;;;;;;5052466;28;20028;-84
2022/10/12 02:52:22;;;;;;;24.60;15.40;;;20.30;61.30;;;;;;5052375;28;20033;-83
2022/10/12 02:54:48;;;;;;;22.80;15.48;;;20.40;61.40;;;;;;5035531;28;20083;-85
2022/10/12 02:57:14;;;;;;;24.70;16.25;;;20.30;61.70;;;;;;5052231;28;20037;-83
2022/10/12 02:59:39;;;;;;;25.75;16.65;;;20.40;60.90;;;;;;5053693;28;20079;-84
2022/10/12 03:02:05;;;;;;;23.63;16.85;;;20.50;60.70;;;;;;5035976;28;20025;-84
2022/10/12 03:04:31;;;;;;;21.70;16.00;;;20.50;60.10;;;;;;5035846;28;20033;-84
2022/10/12 03:06:57;;;;;;;20.67;15.30;;;20.50;60.10;;;;;;5068610;28;20032;-82
2022/10/12 03:09:23;;;;;;;20.92;14.18;;;20.50;60.50;;;;;;5052721;28;20069;-85
2022/10/12 03:11:49;;;;;;;21.30;15.38;;;20.40;60.20;;;;;;5054007;28;20052;-85
2022/10/12 03:14:16;;;;;;;19.58;14.48;;;20.30;60.30;;;;;;5069138;28;20028;-84
2022/10/12 03:16:42;;;;;;;22.20;15.30;;;20.20;60.40;;;;;;5045088;28;20101;-84
2022/10/12 03:19:08;;;;;;;23.55;16.08;;;20.30;60.20;;;;;;5016426;28;20041;-84
2022/10/12 03:21:34;;;;;;;22.10;15.57;;;20.30;60.20;;;;;;5015960;28;20361;-83
2022/10/12 03:24:00;;;;;;;21.63;15.75;;;20.30;60.30;;;;;;5033687;28;20026;-84
2022/10/12 03:26:26;;;;;;;22.33;14.50;;;20.10;61.50;;;;;;5018292;28;20036;-84
2022/10/12 03:28:51;;;;;;;24.45;15.63;;;20.10;61.10;;;;;;5036040;28;20037;-83
2022/10/12 03:31:17;;;;;;;22.13;16.60;;;19.90;62.30;;;;;;5035939;28;20032;-84
2022/10/12 03:33:42;;;;;;;21.95;15.82;;;19.90;61.30;;;;;;5087729;28;20131;-83
2022/10/12 03:36:40;;;;;;;19.13;14.15;;;20.00;60.90;;;;;;5072640;28;20048;-83
2022/10/12 03:39:05;;;;;;;19.95;14.00;;;20.00;60.30;;;;;;5070924;28;20537;-84
2022/10/12 03:41:31;;;;;;;20.75;13.85;;;19.50;62.60;;;;;;5073643;28;20107;-84
2022/10/12 03:43:57;;;;;;;22.30;15.50;;;19.40;63.10;;;;;;5060960;28;20040;-84
2022/10/12 03:46:23;;;;;;;21.17;14.82;;;18.90;64.80;;;;;;5077658;28;20029;-84
2022/10/12 03:48:49;;;;;;;23.88;14.95;;;18.80;65.90;;;;;;5052954;28;20033;-84
2022/10/12 03:51:14;;;;;;;19.20;14.30;;;18.70;65.50;;;;;;5054090;28;20026;-84
2022/10/12 03:53:40;;;;;;;20.73;15.45;;;19.00;63.50;;;;;;5071399;28;20111;-83
2022/10/12 03:56:06;;;;;;;22.73;15.30;;;19.30;62.40;;;;;;5036003;28;20029;-86
2022/10/12 03:58:31;;;;;;;23.20;16.27;;;19.40;62.50;;;;;;5068842;28;20029;-85
2022/10/12 04:00:57;;;;;;;32.00;18.52;;;19.50;62.00;;;;;;5057115;28;20020;-84
2022/10/12 04:03:23;;;;;;;23.40;16.80;;;19.50;61.90;;;;;;5071232;28;20036;-83
2022/10/12 04:05:53;;;;;;;22.27;14.65;;;19.70;61.70;;;;;;5068673;28;20455;-85
2022/10/12 04:08:19;;;;;;;;;;;19.70;61.80;;;;;;5069353;28;20418;-82
2022/10/12 04:10:45;;;;;;;22.33;15.25;;;19.20;63.30;;;;;;5072336;28;19908;-84
2022/10/12 04:13:10;;;;;;;22.55;16.00;;;19.10;63.90;;;;;;5067789;28;20024;-84
2022/10/12 04:15:36;;;;;;;23.33;16.83;;;19.10;63.50;;;;;;5059288;28;20032;-84
2022/10/12 04:18:02;;;;;;;23.02;16.30;;;19.40;62.70;;;;;;5092090;28;20041;-84
2022/10/12 04:20:27;;;;;;;25.00;17.23;;;19.50;62.30;;;;;;5092134;28;20025;-83
2022/10/12 04:22:53;;;;;;;27.23;18.23;;;19.60;62.00;;;;;;5057998;28;20104;-84
2022/10/12 04:25:18;;;;;;;29.08;20.77;;;19.60;61.60;;;;;;5075703;28;20039;-84
2022/10/12 04:27:44;;;;;;;39.20;24.27;;;19.70;61.60;;;;;;5058521;28;20020;-85
2022/10/12 04:30:10;;;;;;;36.25;24.10;;;19.90;61.50;;;;;;5058664;28;20032;-84
2022/10/12 04:32:36;;;;;;;36.00;23.70;;;20.00;61.40;;;;;;5075308;28;20040;-83
2022/10/12 04:35:02;;;;;;;33.67;22.73;;;20.00;61.00;;;;;;5058326;28;20078;-84
2022/10/12 04:37:28;;;;;;;33.22;21.48;;;20.10;61.00;;;;;;5058291;28;20131;-82
2022/10/12 04:39:53;;;;;;;37.58;22.73;;;20.00;61.60;;;;;;5076483;28;20392;-83
2022/10/12 04:42:19;;;;;;;38.78;22.80;;;20.10;61.30;;;;;;5057897;28;20051;-83
2022/10/12 04:44:45;;;;;;;43.00;23.50;;;20.20;60.90;;;;;;5058197;28;20035;-81
2022/10/12 04:47:10;;;;;;;38.22;22.15;;;20.30;61.10;;;;;;5074090;28;20021;-83
2022/10/12 04:49:36;;;;;;;37.63;23.17;;;20.30;60.90;;;;;;5091778;28;20037;-84
2022/10/12 04:52:02;;;;;;;41.35;23.88;;;20.20;60.90;;;;;;5075396;28;20025;-84
2022/10/12 04:54:27;;;;;;;37.10;22.77;;;20.00;60.90;;;;;;5075829;28;20021;-83
2022/10/12 04:56:53;;;;;;;39.08;22.23;;;19.80;61.20;;;;;;5057991;28;20027;-84
2022/10/12 04:59:19;;;;;;;32.65;20.02;;;19.90;61.50;;;;;;5058762;28;20043;-84
2022/10/12 05:01:44;;;;;;;29.55;19.73;;;20.00;61.40;;;;;;5057549;28;20060;-82
2022/10/12 05:04:10;;;;;;;35.72;20.45;;;19.90;61.40;;;;;;5057486;28;20029;-84
2022/10/12 05:06:36;;;;;;;36.35;21.50;;;19.90;61.60;;;;;;5057870;28;20067;-83
2022/10/12 05:09:01;;;;;;;31.30;18.25;;;20.00;61.30;;;;;;5070192;28;20102;-83
2022/10/12 05:11:27;;;;;;;30.23;17.77;;;19.90;61.30;;;;;;5057363;28;20021;-85
2022/10/12 05:13:53;;;;;;;27.13;18.65;;;19.80;61.80;;;;;;5074852;28;20129;-84
2022/10/12 05:16:18;;;;;;;28.90;18.60;;;20.00;61.70;;;;;;5060627;28;20016;-85
2022/10/12 05:18:46;;;;;;;24.70;16.92;;;20.10;61.60;;;;;;5094274;28;20040;-84
2022/10/12 05:21:12;;;;;;;25.25;17.58;;;20.20;61.50;;;;;;5094845;28;20020;-82
2022/10/12 05:23:38;;;;;;;30.60;19.90;;;19.80;62.30;;;;;;5074083;28;20035;-83
2022/10/12 05:26:03;;;;;;;29.80;20.25;;;19.60;63.40;;;;;;5056963;28;20023;-84
2022/10/12 05:28:29;;;;;;;29.52;20.13;;;19.80;63.00;;;;;;5056547;28;20032;-83
2022/10/12 05:30:55;;;;;;;26.25;17.48;;;20.10;62.40;;;;;;5073305;28;20021;-83
2022/10/12 05:33:20;;;;;;;21.88;16.35;;;20.10;61.90;;;;;;5074371;28;20045;-85
2022/10/12 05:35:47;;;;;;;25.88;18.08;;;19.70;63.20;;;;;;5073438;28;20028;-84
2022/10/12 05:38:13;;;;;;;24.33;16.85;;;19.50;64.50;;;;;;5073044;28;20379;-83
2022/10/12 05:40:38;;;;;;;27.45;18.48;;;19.70;64.10;;;;;;5074189;28;20478;-83
2022/10/12 05:43:04;;;;;;;23.90;16.95;;;20.00;63.00;;;;;;5073087;28;20207;-84
2022/10/12 05:45:30;;;;;;;23.92;16.60;;;20.00;63.30;;;;;;5073686;28;20032;-83
2022/10/12 05:47:56;;;;;;;27.10;19.08;;;20.10;63.10;;;;;;5074395;28;20028;-84
2022/10/12 05:50:22;;;;;;;24.15;16.88;;;20.40;62.80;;;;;;5071776;28;20017;-82
2022/10/12 05:52:47;;;;;;;24.23;17.85;;;20.70;62.40;;;;;;5054475;28;20035;-82
2022/10/12 05:55:13;;;;;;;21.15;16.80;;;20.80;62.20;;;;;;5071912;28;20028;-84
2022/10/12 05:57:39;;;;;;;24.20;16.50;;;20.80;61.80;;;;;;5074084;28;20040;-84
2022/10/12 06:00:07;;;;;;;24.17;16.45;;;20.80;62.30;;;;;;5072504;28;20021;-81
2022/10/12 06:02:33;;;;;;;30.58;19.98;;;20.80;62.20;;;;;;5072398;28;20382;-83
2022/10/12 06:04:58;;;;;;;22.75;16.85;;;20.90;61.90;;;;;;5072418;28;20021;-81
2022/10/12 06:07:24;;;;;;;23.00;16.02;;;21.10;61.70;;;;;;5072435;28;20070;-82
2022/10/12 06:09:50;;;;;;;19.95;15.73;;;21.10;61.40;;;;;;5089790;28;20036;-83
2022/10/12 06:12:16;;;;;;;23.35;16.45;;;20.60;62.30;;;;;;5073250;28;20008;-82
2022/10/12 06:14:42;;;;;;;27.30;18.38;;;20.20;63.80;;;;;;5061625;28;20087;-82
2022/10/12 06:17:08;;;;;;;28.50;18.15;;;20.10;64.70;;;;;;5053810;28;20056;-82
2022/10/12 06:19:34;;;;;;;29.05;19.90;;;20.40;63.60;;;;;;5051767;28;20074;-82
2022/10/12 06:22:00;;;;;;;26.50;19.33;;;20.60;63.20;;;;;;5055419;28;20552;-82
2022/10/12 06:24:26;;;;;;;25.80;17.30;;;21.00;62.70;;;;;;5056126;28;20115;-84
2022/10/12 06:26:51;;;;;;;24.98;18.50;;;21.20;62.20;;;;;;5051990;28;20020;-83
2022/10/12 06:29:17;;;;;;;27.83;19.95;;;21.30;61.80;;;;;;5050585;28;20070;-83
2022/10/12 06:31:43;;;;;;;25.25;18.42;;;21.40;61.90;;;;;;5057100;28;20024;-83
2022/10/12 06:34:09;;;;;;;26.20;18.90;;;21.40;62.00;;;;;;5072968;28;20108;-82
2022/10/12 06:36:34;;;;;;;28.10;18.98;;;21.50;62.50;;;;;;5073544;28;20029;-82
2022/10/12 06:39:03;;;;;;;24.08;17.45;;;21.60;62.00;;;;;;5055217;28;20044;-82
2022/10/12 06:41:29;;;;;;;26.00;18.08;;;21.40;62.30;;;;;;5072164;28;20016;-82
2022/10/12 06:43:54;;;;;;;26.33;18.33;;;21.20;63.20;;;;;;5069092;28;20390;-82
2022/10/12 06:46:20;;;;;;;26.92;17.75;;;21.20;63.20;;;;;;5070710;28;20037;-83
2022/10/12 06:48:45;;;;;;;31.48;18.70;;;21.50;62.70;;;;;;5070499;28;20028;-83
2022/10/12 06:51:11;;;;;;;26.60;18.50;;;21.60;61.80;;;;;;5072145;28;20020;-83
2022/10/12 06:53:39;;;;;;;26.45;18.50;;;21.80;61.70;;;;;;5070856;28;20111;-84
2022/10/12 06:56:07;;;;;;;25.77;17.73;;;22.00;61.70;;;;;;5072600;28;20024;-81
2022/10/12 06:58:32;;;;;;;21.40;16.63;;;22.00;61.40;;;;;;5072089;28;20040;-81
2022/10/12 07:01:02;;;;;;;23.13;16.85;;;22.00;60.90;;;;;;5056827;28;20388;-81
2022/10/12 07:03:28;;;;;;;21.55;16.30;;;21.50;62.20;;;;;;5069161;28;20029;-81
2022/10/12 07:05:54;;;;;;;28.20;17.20;;;21.20;62.90;;;;;;5052924;28;20040;-80
2022/10/12 07:08:19;;;;;;;24.60;16.50;;;20.90;63.90;;;;;;5053051;28;20055;-83
2022/10/12 07:10:45;;;;;;;24.35;17.30;;;20.60;64.30;;;;;;5047191;28;20037;-82
2022/10/12 07:13:11;;;;;;;25.48;17.77;;;20.40;65.20;;;;;;5072828;28;20048;-80
2022/10/12 07:15:36;;;;;;;25.00;17.30;;;20.50;65.50;;;;;;5072829;28;20040;-82
2022/10/12 07:18:02;;;;;;;24.38;16.60;;;20.90;65.20;;;;;;5073028;28;20036;-81
2022/10/12 07:20:28;;;;;;;23.50;16.30;;;21.30;63.90;;;;;;5073091;28;20024;-82
2022/10/12 07:22:53;;;;;;;26.10;16.88;;;21.50;63.70;;;;;;5055170;28;20029;-82
2022/10/12 07:25:21;;;;;;;20.95;16.15;;;21.80;63.10;;;;;;5072598;28;20115;-82
2022/10/12 07:27:47;;;;;;;22.08;15.15;;;21.80;62.80;;;;;;5087305;28;20028;-80
2022/10/12 07:30:13;;;;;;;21.88;15.18;;;21.50;62.70;;;;;;5071515;28;20044;-81
2022/10/12 07:32:38;;;;;;;26.15;17.67;;;21.40;63.30;;;;;;5053519;28;20056;-82
2022/10/12 07:35:04;;;;;;;25.95;16.88;;;21.70;63.00;;;;;;5087392;28;20494;-82
2022/10/12 07:37:30;;;;;;;22.55;15.52;;;21.80;62.60;;;;;;5087459;28;20512;-83
2022/10/12 07:39:56;;;;;;;19.33;15.27;;;21.30;63.00;;;;;;5072066;28;20032;-82
2022/10/12 07:42:23;;;;;;;23.85;16.35;;;20.90;64.50;;;;;;5072468;28;20024;-82
2022/10/12 07:44:48;;;;;;;22.17;15.07;;;21.00;64.70;;;;;;5075681;28;20024;-81
2022/10/12 07:47:16;;;;;;;25.73;16.60;;;21.20;64.20;;;;;;5092091;28;20071;-81
2022/10/12 07:49:42;;;;;;;25.60;17.27;;;21.30;63.90;;;;;;5058694;28;20032;-81
2022/10/12 07:52:08;;;;;;;22.42;16.55;;;21.40;63.60;;;;;;5076378;28;20028;-81
2022/10/12 07:54:33;;;;;;;28.35;17.25;;;21.70;63.00;;;;;;5076329;28;20024;-81
2022/10/12 07:56:59;;;;;;;23.30;18.17;;;22.00;62.70;;;;;;5058367;28;20040;-80
2022/10/12 07:59:25;;;;;;;28.77;17.70;;;22.20;62.20;;;;;;5092082;28;20036;-81
2022/10/12 08:02:03;;;;;;;25.67;17.95;;;22.50;61.70;;;;;;5075661;28;20450;-81
2022/10/12 08:04:28;;;;;;;26.17;18.52;;;22.70;61.40;;;;;;5058986;28;20050;-81
2022/10/12 08:06:54;;;;;;;25.17;18.30;;;22.80;61.30;;;;;;5075826;28;20020;-80
2022/10/12 08:09:20;;;;;;;29.73;18.65;;;23.00;61.00;;;;;;5076024;28;20059;-80
2022/10/12 08:11:46;;;;;;;28.17;19.00;;;23.10;60.50;;;;;;5058452;28;20051;-81
2022/10/12 08:14:13;;;;;;;30.30;21.00;;;23.10;59.80;;;;;;5076091;28;20031;-82
2022/10/12 08:16:41;;;;;;;27.10;20.35;;;23.10;59.40;;;;;;5057993;28;20021;-81
2022/10/12 08:19:07;;;;;;;24.40;18.33;;;22.90;59.90;;;;;;5058236;28;20124;-83
2022/10/12 08:21:32;;;;;;;26.55;18.48;;;22.80;59.70;;;;;;5075992;28;20501;-83
2022/10/12 08:23:58;;;;;;;27.30;19.27;;;22.00;61.20;;;;;;5076114;28;20254;-82
2022/10/12 08:26:24;;;;;;;31.23;19.58;;;21.40;62.40;;;;;;5091736;28;20391;-81
2022/10/12 08:28:49;;;;;;;31.15;19.20;;;21.50;63.10;;;;;;5058028;28;20059;-81
2022/10/12 08:31:16;;;;;;;27.05;18.67;;;21.80;62.80;;;;;;5091635;28;20021;-81
2022/10/12 08:33:42;;;;;;;26.90;18.23;;;22.10;62.10;;;;;;5075458;28;20044;-80
2022/10/12 08:36:10;;;;;;;25.35;18.73;;;22.10;61.70;;;;;;5076030;28;20036;-81
2022/10/12 08:38:39;;;;;;;27.65;17.98;;;22.20;61.10;;;;;;5076054;28;20033;-82
2022/10/12 08:41:38;;;;;;;24.10;17.45;;;22.20;61.10;;;;;;5058480;28;20026;-82
2022/10/12 08:44:16;;;;;;;27.25;18.00;;;21.80;60.90;;;;;;5057959;28;20044;-81
2022/10/12 08:46:42;;;;;;;25.40;17.85;;;21.90;62.00;;;;;;5075757;28;20114;-80
2022/10/12 08:49:20;;;;;;;25.15;18.38;;;22.10;61.10;;;;;;5075801;28;20107;-81
2022/10/12 08:51:52;;;;;;;24.25;17.67;;;22.30;60.60;;;;;;5058153;28;20097;-82
2022/10/12 08:54:21;;;;;;;25.80;17.58;;;22.20;60.30;;;;;;5057757;28;20043;-83
2022/10/12 08:56:48;;;;;;;26.48;18.08;;;22.20;60.30;;;;;;5074530;28;20029;-81
2022/10/12 08:59:17;;;;;;;28.48;18.17;;;22.20;61.00;;;;;;5075830;28;20040;-82
2022/10/12 09:02:33;;;;;;;24.45;16.70;;;22.20;61.30;;;;;;5075885;28;20083;-84
2022/10/12 09:05:09;;;;;;;24.23;17.90;;;21.90;60.30;;;;;;5075633;28;20432;-81
2022/10/12 09:07:38;;;;;;;22.40;17.08;;;21.70;61.70;;;;;;5057844;28;20020;-92
2022/10/12 09:10:25;;;;;;;21.48;16.33;;;22.00;61.00;;;;;;5075979;28;20094;-81
2022/10/12 09:12:54;;;;;;;22.35;16.20;;;22.10;60.70;;;;;;5057567;28;20120;-81
2022/10/12 09:15:30;;;;;;;23.15;16.77;;;22.30;60.60;;;;;;5057340;28;20060;-82
2022/10/12 09:17:59;;;;;;;24.40;15.60;;;22.70;59.80;;;;;;5075585;28;20031;-84
2022/10/12 09:20:30;;;;;;;24.85;16.15;;;22.70;59.30;;;;;;5057669;28;20028;-82
2022/10/12 09:23:14;;;;;;;20.55;15.88;;;22.40;60.20;;;;;;5056927;28;20017;-81
2022/10/12 09:25:41;;;;;;;24.42;16.08;;;22.60;60.20;;;;;;5056946;28;20024;-81
2022/10/12 09:28:33;;;;;;;23.77;16.65;;;22.80;59.20;;;;;;5056865;28;20029;-80
2022/10/12 09:31:16;;;;;;;21.92;16.65;;;22.60;59.60;;;;;;5056612;28;20100;-83
2022/10/12 09:33:47;;;;;;;21.20;15.35;;;22.70;59.30;;;;;;5056225;28;20102;-83
2022/10/12 09:36:21;;;;;;;23.17;16.00;;;22.90;59.50;;;;;;5055356;28;20025;-82
2022/10/12 09:38:50;;;;;;;21.30;16.33;;;23.10;58.20;;;;;;5055012;28;20028;-86
2022/10/12 09:41:32;;;;;;;21.27;15.88;;;23.10;58.40;;;;;;5089133;28;20052;-89
2022/10/12 09:44:00;;;;;;;25.48;15.43;;;22.70;59.60;;;;;;5056045;28;20060;-81
2022/10/12 09:46:40;;;;;;;22.23;14.88;;;22.40;59.90;;;;;;5074624;28;20484;-94
2022/10/12 09:49:06;;;;;;;20.00;14.80;;;22.30;60.10;;;;;;5055838;28;20031;-84
2022/10/12 09:51:32;;;;;;;20.63;15.13;;;22.70;59.50;;;;;;5056606;28;20021;-84
2022/10/12 09:54:02;;;;;;;18.63;13.35;;;22.70;59.40;;;;;;5056511;28;20021;-82
2022/10/12 09:56:48;;;;;;;18.90;15.15;;;23.00;59.50;;;;;;5074716;28;20078;-81
2022/10/12 09:59:32;;;;;;;28.08;24.83;;;23.30;58.90;;;;;;5074515;28;20036;-83
2022/10/12 10:02:02;;;;;;;21.85;14.82;;;23.30;59.00;;;;;;5056435;28;20521;-88
2022/10/12 10:04:29;;;;;;;;;;;23.30;59.20;;;;;;5056893;28;20052;-84
2022/10/12 10:06:54;;;;;;;22.35;14.88;;;23.20;59.20;;;;;;5055583;28;19908;-81
2022/10/12 10:09:29;;;;;;;23.83;16.60;;;23.40;59.50;;;;;;5073719;28;20028;-82
2022/10/12 10:12:11;;;;;;;22.15;15.32;;;23.80;58.90;;;;;;5074125;28;20040;-81
2022/10/12 10:14:36;;;;;;;21.98;15.80;;;23.80;59.10;;;;;;5066837;28;20028;-82
2022/10/12 10:17:02;;;;;;;19.42;14.55;;;23.80;59.30;;;;;;5089873;28;20482;-84
2022/10/12 10:19:28;;;;;;;24.85;15.30;;;23.90;59.00;;;;;;5055813;28;20457;-94
2022/10/12 10:21:54;;;;;;;22.13;14.88;;;23.90;59.30;;;;;;5056255;28;20020;-82
2022/10/12 10:24:31;;;;;;;22.85;14.98;;;23.70;59.60;;;;;;5074169;28;20060;-81
2022/10/12 10:27:03;;;;;;;21.65;16.15;;;23.40;60.30;;;;;;5056800;28;20490;-81
2022/10/12 10:29:34;;;;;;;25.35;16.02;;;23.50;60.60;;;;;;5073878;28;20024;-81
2022/10/12 10:32:25;;;;;;;20.95;14.25;;;23.80;60.60;;;;;;5056045;28;20052;-85
2022/10/12 10:35:12;;;;;;;20.30;14.48;;;23.90;59.40;;;;;;5056109;28;20201;-84
2022/10/12 10:37:49;;;;;;;18.08;13.88;;;23.80;60.00;;;;;;5073783;28;20412;-83
2022/10/12 10:40:33;;;;;;;16.30;12.27;;;23.80;58.50;;;;;;5074248;28;20048;-82
2022/10/12 10:43:05;;;;;;;21.00;12.80;;;23.60;57.70;;;;;;5055481;28;20028;-81
2022/10/12 10:45:39;;;;;;;17.77;13.40;;;23.50;57.70;;;;;;5073665;28;20079;-91
2022/10/12 10:48:12;;;;;;;19.23;13.60;;;23.30;57.40;;;;;;5055926;28;20024;-81
2022/10/12 10:50:42;;;;;;;16.60;11.82;;;23.30;57.70;;;;;;5073176;28;20021;-87
2022/10/12 10:53:18;;;;;;;18.90;12.05;;;23.80;56.80;;;;;;5055994;28;20020;-84
2022/10/12 10:56:04;;;;;;;18.88;12.50;;;23.80;56.80;;;;;;5072947;28;20374;-81
2022/10/12 10:58:52;;;;;;;22.58;12.65;;;24.00;56.90;;;;;;5073115;28;20380;-81
2022/10/12 11:01:27;;;;;;;20.45;13.35;;;24.30;56.00;;;;;;5073369;28;20063;-81
2022/10/12 11:04:00;;;;;;;18.13;12.55;;;24.50;56.00;;;;;;5073390;28;20028;-82
2022/10/12 11:06:36;;;;;;;16.83;11.30;;;24.80;55.30;;;;;;5055681;28;20037;-88
2022/10/12 11:09:16;;;;;;;17.13;12.55;;;24.80;54.10;;;;;;5055495;28;20039;-83
2022/10/12 11:11:44;;;;;;;19.25;14.52;;;24.70;55.20;;;;;;5069860;28;20024;-81
2022/10/12 11:14:20;;;;;;;19.42;14.70;;;25.00;55.70;;;;;;5073048;28;20025;-81
2022/10/12 11:16:57;;;;;;;16.38;12.98;;;25.40;56.70;;;;;;5072855;28;20025;-82
2022/10/12 11:19:48;;;;;;;18.88;12.35;;;25.60;55.00;;;;;;5057242;28;20033;-81
2022/10/12 11:22:41;;;;;;;17.08;12.40;;;25.70;54.70;;;;;;5077321;28;20033;-81
2022/10/12 11:25:27;;;;;;;16.35;11.68;;;25.30;54.60;;;;;;5076761;28;20489;-82
2022/10/12 11:27:53;;;;;;;17.23;11.93;;;25.10;54.00;;;;;;5077119;28;20056;-82
2022/10/12 11:30:22;;;;;;;18.17;13.35;;;24.80;55.00;;;;;;5076788;28;20025;-81
2022/10/12 11:32:58;;;;;;;25.23;14.00;;;25.10;55.60;;;;;;5076852;28;20048;-83
2022/10/12 11:35:27;;;;;;;26.52;15.52;;;25.30;54.50;;;;;;5058966;28;20021;-82
2022/10/12 11:38:03;;;;;;;18.02;14.27;;;24.90;55.50;;;;;;5076266;28;20422;-82
2022/10/12 11:40:39;;;;;;;22.08;15.27;;;25.20;55.40;;;;;;5076394;28;20032;-83
2022/10/12 11:43:09;;;;;;;23.30;13.57;;;25.40;55.00;;;;;;5076312;28;20031;-81
2022/10/12 11:45:42;;;;;;;35.88;15.95;;;25.70;54.80;;;;;;5076540;28;20113;-81
2022/10/12 11:48:14;;;;;;;23.38;13.73;;;25.80;54.30;;;;;;5058457;28;20021;-81
2022/10/12 11:50:44;;;;;;;22.67;13.25;;;25.90;54.00;;;;;;5058424;28;20028;-82
2022/10/12 11:53:30;;;;;;;18.20;12.82;;;25.80;54.70;;;;;;5075988;28;20124;-82
2022/10/12 11:56:18;;;;;;;18.02;13.38;;;25.90;54.80;;;;;;5058100;28;20082;-83
2022/10/12 11:58:46;;;;;;;17.33;13.07;;;25.90;54.80;;;;;;5058331;28;20448;-82
2022/10/12 12:01:15;;;;;;;19.10;13.98;;;25.70;54.80;;;;;;5076183;28;20078;-82
2022/10/12 12:03:43;;;;;;;22.73;13.35;;;25.70;55.90;;;;;;5058269;28;20040;-81
2022/10/12 12:06:49;;;;;;;16.83;12.95;;;25.80;55.20;;;;;;5075941;28;20106;-82
2022/10/12 12:09:20;;;;;;;16.77;12.45;;;26.00;55.10;;;;;;5013937;28;20476;-81
2022/10/12 12:11:45;;;;;;;17.85;12.68;;;26.00;54.60;;;;;;5014138;28;20046;-81
2022/10/12 12:14:20;;;;;;;18.98;12.48;;;26.00;54.40;;;;;;5014120;28;20025;-81
2022/10/12 12:16:47;;;;;;;21.33;13.45;;;26.00;54.50;;;;;;5013874;28;20081;-81
2022/10/12 12:19:37;;;;;;;15.52;12.43;;;26.00;54.50;;;;;;4997189;28;20188;-81
2022/10/12 12:22:23;;;;;;;23.05;13.10;;;26.10;54.00;;;;;;4997497;28;20069;-81
2022/10/12 12:25:03;;;;;;;17.70;12.63;;;26.10;54.30;;;;;;5014066;28;20042;-81
2022/10/12 12:27:54;;;;;;;15.60;12.30;;;26.10;54.80;;;;;;5013979;28;20022;-81
2022/10/12 12:30:28;;;;;;;20.40;12.95;;;26.10;54.60;;;;;;4996933;28;20038;-82
2022/10/12 12:33:14;;;;;;;18.98;12.65;;;26.10;53.60;;;;;;5013912;28;20049;-82
2022/10/12 12:35:51;;;;;;;18.05;12.75;;;26.10;53.50;;;;;;5013602;28;20100;-81
2022/10/12 12:38:25;;;;;;;17.27;11.88;;;26.00;54.60;;;;;;5013458;28;20070;-80
2022/10/12 12:41:06;;;;;;;16.45;12.48;;;25.90;54.70;;;;;;4997074;28;20038;-80
2022/10/12 12:43:31;;;;;;;;;;;25.80;55.50;;;;;;5052058;28;20438;-80
2022/10/12 12:46:03;;;;;;;20.73;13.52;;;25.70;56.20;;;;;;5091218;28;19950;-81